Time;durP1;ratioP1;P1;durP2;ratioP2;P2;SDS_P1;SDS_P2;PMS_P1;PMS_P2;Temp;Humidity;BMP_temperature;BMP_pressure;BME280_temperature;BME280_humidity;BME280_pressure;Samples;Min_cycle;Max_cycle;Signal;HPM_P1;HPM_P2
2024/02/20 00:02:00;;;;;;;3.53;2.60;;;;;;;1.23;76.51;101283.97;5033829;28;20930;-75
2024/02/20 00:04:27;;;;;;;3.63;2.80;;;;;;;1.23;76.10;101279.66;5033737;28;20820;-75
2024/02/20 00:06:54;;;;;;;4.93;2.53;;;;;;;1.24;76.47;101285.69;5033745;28;20479;-75
2024/02/20 00:09:21;;;;;;;4.30;2.80;;;;;;;1.24;76.10;101288.28;5033633;28;20440;-75
2024/02/20 00:11:49;;;;;;;3.77;2.60;;;;;;;1.24;76.38;101285.69;5033519;28;20441;-75
2024/02/20 00:14:16;;;;;;;4.10;2.73;;;;;;;1.17;76.49;101287.28;5033468;28;20487;-75
2024/02/20 00:16:43;;;;;;;3.67;2.80;;;;;;;1.23;76.10;101295.13;5033521;28;20435;-75
2024/02/20 00:19:10;;;;;;;4.47;3.13;;;;;;;1.23;76.45;101289.13;5033674;28;20464;-75
2024/02/20 00:21:40;;;;;;;5.23;3.03;;;;;;;1.21;76.32;101296.81;5033273;28;20448;-75
2024/02/20 00:24:07;;;;;;;4.33;3.27;;;;;;;1.23;76.52;101299.44;5033290;28;20449;-75
2024/02/20 00:26:34;;;;;;;3.23;2.50;;;;;;;1.22;76.14;101298.56;5033303;28;20452;-75
2024/02/20 00:29:02;;;;;;;5.20;3.03;;;;;;;1.20;76.73;101286.47;5033343;28;20436;-74
2024/02/20 00:31:32;;;;;;;3.67;2.93;;;;;;;1.23;76.18;101299.44;5033278;28;20455;-74
2024/02/20 00:33:59;;;;;;;5.80;3.20;;;;;;;1.22;76.37;101296.00;5032500;28;20492;-74
2024/02/20 00:36:26;;;;;;;4.23;2.83;;;;;;;1.23;76.52;101289.13;5033282;28;20443;-74
2024/02/20 00:38:53;;;;;;;4.37;3.23;;;;;;;1.21;76.48;101281.34;5032959;28;20444;-74
2024/02/20 00:41:20;;;;;;;4.07;2.90;;;;;;;1.23;76.06;101278.81;5033347;28;20443;-74
2024/02/20 00:43:47;;;;;;;5.70;3.20;;;;;;;1.23;76.57;101281.38;5033026;28;20446;-74
2024/02/20 00:46:20;;;;;;;3.60;2.67;;;;;;;1.22;76.63;101277.94;5033121;28;20810;-75
2024/02/20 00:48:47;;;;;;;5.07;3.10;;;;;;;1.23;76.64;101281.38;5032908;28;20858;-74
2024/02/20 00:51:16;;;;;;;3.83;2.93;;;;;;;1.24;76.67;101275.38;5032852;28;20958;-74
2024/02/20 00:53:43;;;;;;;5.23;3.07;;;;;;;1.22;76.59;101261.56;5032730;28;20861;-74
2024/02/20 00:56:11;;;;;;;5.50;3.27;;;;;;;1.23;76.49;101259.06;5032670;28;20476;-74
2024/02/20 00:58:38;;;;;;;4.03;2.97;;;;;;;1.23;76.25;101250.47;5032845;28;20946;-75
2024/02/20 01:01:09;;;;;;;4.77;3.20;;;;;;;1.23;76.69;101248.75;5032651;28;20441;-74
2024/02/20 01:03:38;;;;;;;6.10;3.57;;;;;;;1.23;76.32;101246.16;5032752;28;20483;-74
2024/02/20 01:06:07;;;;;;;5.23;3.27;;;;;;;1.24;76.68;101244.44;5032688;28;20432;-74
2024/02/20 01:08:34;;;;;;;7.50;3.90;;;;;;;1.24;76.37;101244.44;5032776;28;20444;-74
2024/02/20 01:11:01;;;;;;;8.47;4.07;;;;;;;1.24;76.67;101245.31;5032584;28;20443;-75
2024/02/20 01:13:28;;;;;;;4.83;3.20;;;;;;;1.23;76.73;101247.88;5032455;28;20506;-74
2024/02/20 01:15:55;;;;;;;7.27;3.60;;;;;;;1.25;76.79;101246.22;5032539;28;20432;-74
2024/02/20 01:18:22;;;;;;;5.13;3.33;;;;;;;1.24;76.78;101239.28;5032480;28;20953;-75
2024/02/20 01:20:50;;;;;;;6.20;3.40;;;;;;;1.24;76.77;101239.28;5032528;28;20448;-74
2024/02/20 01:23:17;;;;;;;8.00;4.20;;;;;;;1.24;76.88;101239.28;5032411;28;20435;-74
2024/02/20 01:25:44;;;;;;;6.63;3.23;;;;;;;1.25;76.44;101243.63;5032676;28;20440;-74
2024/02/20 01:28:11;;;;;;;6.63;3.40;;;;;;;1.24;76.71;101232.44;5032533;28;20433;-74
2024/02/20 01:30:38;;;;;;;7.63;3.60;;;;;;;1.25;76.67;101236.78;5032442;28;20444;-75
2024/02/20 01:33:05;;;;;;;6.43;3.53;;;;;;;1.24;76.29;101239.28;5032368;28;20907;-74
2024/02/20 01:35:32;;;;;;;8.13;3.97;;;;;;;1.25;76.57;101235.91;5032258;28;20997;-74
2024/02/20 01:38:00;;;;;;;6.90;3.50;;;;;;;1.24;76.38;101239.28;5032298;28;20453;-74
2024/02/20 01:40:27;;;;;;;6.37;3.73;;;;;;;1.23;76.60;101247.88;5032454;28;20449;-74
2024/02/20 01:42:58;;;;;;;6.90;3.50;;;;;;;1.23;76.29;101237.56;5032618;28;20436;-74
2024/02/20 01:45:24;;;;;;;7.40;3.27;;;;;;;1.23;76.45;101241.00;5032898;28;20460;-75
2024/02/20 01:47:51;;;;;;;6.77;3.53;;;;;;;1.24;76.29;101242.75;5036316;28;20495;-75
2024/02/20 01:50:18;;;;;;;8.30;3.70;;;;;;;1.23;76.33;101250.47;5036207;28;20434;-75
2024/02/20 01:52:45;;;;;;;7.20;3.60;;;;;;;1.24;76.61;101252.19;5036210;28;20440;-74
2024/02/20 01:55:14;;;;;;;5.33;3.07;;;;;;;1.24;76.30;101260.78;5036020;28;20493;-74
2024/02/20 01:57:41;;;;;;;5.43;3.43;;;;;;;1.23;76.76;101247.88;5036120;28;20442;-74
2024/02/20 02:00:08;;;;;;;5.83;3.13;;;;;;;1.23;76.70;101258.19;5051370;28;20449;-74
2024/02/20 02:02:35;;;;;;;6.43;3.43;;;;;;;1.23;76.73;101251.31;5055976;28;20990;-74
2024/02/20 02:05:03;;;;;;;4.20;2.77;;;;;;;1.23;76.54;101250.47;5055959;28;20436;-75
2024/02/20 02:07:30;;;;;;;6.50;3.90;;;;;;;1.22;76.58;101246.13;5055777;28;20527;-75
2024/02/20 02:09:57;;;;;;;6.37;3.73;;;;;;;1.21;76.50;101245.25;5055879;28;20451;-72
2024/02/20 02:12:27;;;;;;;5.30;3.13;;;;;;;1.23;76.35;101247.88;5055810;28;20445;-71
2024/02/20 02:14:54;;;;;;;8.03;3.53;;;;;;;1.22;76.75;101243.53;5055550;28;20487;-72
2024/02/20 02:17:21;;;;;;;7.23;3.20;;;;;;;1.23;76.80;101245.31;5055584;28;20527;-71
2024/02/20 02:19:48;;;;;;;6.17;3.23;;;;;;;1.23;76.26;101242.72;5055572;28;20523;-71
2024/02/20 02:22:15;;;;;;;8.37;3.53;;;;;;;1.23;76.63;101240.16;5055718;28;20441;-71
2024/02/20 02:24:42;;;;;;;7.47;3.90;;;;;;;1.21;76.32;101234.94;5055545;28;20434;-71
2024/02/20 02:27:11;;;;;;;7.70;3.60;;;;;;;1.23;76.73;101224.69;5055390;28;20866;-72
2024/02/20 02:29:38;;;;;;;6.67;3.43;;;;;;;1.23;76.59;101222.09;5055493;28;20430;-71
2024/02/20 02:32:06;;;;;;;6.40;3.63;;;;;;;1.22;76.75;101218.66;5055434;28;20465;-71
2024/02/20 02:34:33;;;;;;;7.93;3.73;;;;;;;1.23;76.60;101222.09;5055314;28;20488;-72
2024/02/20 02:37:00;;;;;;;10.40;3.47;;;;;;;1.22;76.90;101221.25;5055238;28;20441;-72
2024/02/20 02:39:27;;;;;;;9.33;3.60;;;;;;;1.23;76.70;101216.94;5055385;28;20446;-71
2024/02/20 02:41:54;;;;;;;8.47;3.83;;;;;;;1.23;76.21;101216.94;5055114;28;20820;-71
2024/02/20 02:44:23;;;;;;;6.23;3.03;;;;;;;1.23;76.56;101214.38;5055160;28;20448;-72
2024/02/20 02:46:50;;;;;;;5.10;3.40;;;;;;;1.23;77.00;101222.09;5055199;28;20453;-71
2024/02/20 02:49:17;;;;;;;8.43;3.70;;;;;;;1.22;76.72;101218.66;5055030;28;20443;-74
2024/02/20 02:51:44;;;;;;;8.97;4.03;;;;;;;1.20;76.40;101215.16;5055380;28;20434;-74
2024/02/20 02:54:11;;;;;;;7.77;3.30;;;;;;;1.22;76.76;101215.19;5054735;28;20483;-74
2024/02/20 02:56:38;;;;;;;8.47;3.17;;;;;;;1.22;76.74;101221.25;5054491;28;20439;-74
2024/02/20 02:59:05;;;;;;;7.23;2.97;;;;;;;1.22;76.41;101215.19;5054422;28;20492;-74
2024/02/20 03:01:33;;;;;;;5.63;3.20;;;;;;;1.22;76.75;101222.91;5054778;28;20436;-74
2024/02/20 03:04:01;;;;;;;4.67;2.83;;;;;;;1.22;76.38;101228.06;5054744;28;20446;-74
2024/02/20 03:06:28;;;;;;;6.97;3.60;;;;;;;1.22;76.59;101225.50;5054796;28;20454;-74
2024/02/20 03:08:55;;;;;;;6.13;3.30;;;;;;;1.21;76.42;101226.34;5054738;28;20942;-74
2024/02/20 03:11:21;;;;;;;7.53;3.13;;;;;;;1.20;76.81;101232.34;5054551;28;20439;-74
2024/02/20 03:13:49;;;;;;;6.43;3.33;;;;;;;1.21;76.65;101228.91;5054469;28;20443;-74
2024/02/20 03:16:16;;;;;;;8.07;3.37;;;;;;;1.21;76.41;101228.91;5054622;28;20438;-75
2024/02/20 03:18:44;;;;;;;6.03;3.73;;;;;;;1.21;76.51;101226.34;5054713;28;20457;-80
2024/02/20 03:21:11;;;;;;;6.33;3.30;;;;;;;1.20;76.79;101217.75;5054965;28;20510;-79
2024/02/20 03:23:38;;;;;;;6.53;3.53;;;;;;;1.20;76.70;101220.31;5054834;28;20436;-80
2024/02/20 03:26:05;;;;;;;5.30;3.50;;;;;;;1.19;76.71;101212.53;5055001;28;20457;-79
2024/02/20 03:28:32;;;;;;;5.37;3.07;;;;;;;1.20;77.02;101211.72;5054670;28;20428;-80
2024/02/20 03:31:00;;;;;;;5.00;2.70;;;;;;;1.20;76.62;101206.56;5054650;28;20440;-80
2024/02/20 03:33:29;;;;;;;6.33;3.83;;;;;;;1.20;76.73;101211.72;5054646;28;20442;-79
2024/02/20 03:35:58;;;;;;;6.97;3.47;;;;;;;1.17;76.58;101206.50;5054787;28;21048;-80
2024/02/20 03:38:25;;;;;;;6.70;3.53;;;;;;;1.20;76.83;101214.31;5054516;28;20923;-79
2024/02/20 03:40:52;;;;;;;6.53;3.07;;;;;;;1.19;76.58;101207.38;5054504;28;20447;-80
2024/02/20 03:43:19;;;;;;;6.40;2.80;;;;;;;1.19;76.64;101209.97;5054328;28;20439;-80
2024/02/20 03:45:46;;;;;;;5.73;2.80;;;;;;;1.18;76.83;101206.53;5054331;28;20447;-79
2024/02/20 03:48:13;;;;;;;6.10;3.03;;;;;;;1.17;76.40;101202.22;5054258;28;20520;-80
2024/02/20 03:50:39;;;;;;;5.83;2.83;;;;;;;1.11;76.28;101188.34;5054223;28;20447;-79
2024/02/20 03:53:08;;;;;;;6.30;3.33;;;;;;;1.18;76.49;101209.09;5054187;28;20430;-80
2024/02/20 03:55:36;;;;;;;7.03;3.00;;;;;;;1.15;76.54;101209.03;5054094;28;20864;-80
2024/02/20 03:58:03;;;;;;;7.03;3.23;;;;;;;1.18;76.48;101223.69;5053783;28;20470;-79
2024/02/20 04:00:30;;;;;;;5.90;3.23;;;;;;;1.18;76.76;101223.69;5053914;28;20492;-72
2024/02/20 04:02:57;;;;;;;5.93;2.67;;;;;;;1.17;76.93;101228.00;5053645;28;20446;-72
2024/02/20 04:05:24;;;;;;;6.50;3.30;;;;;;;1.17;76.55;101234.84;5053617;28;20893;-72
2024/02/20 04:07:51;;;;;;;5.20;2.70;;;;;;;1.17;77.04;101235.72;5053555;28;20439;-72
2024/02/20 04:10:20;;;;;;;6.37;3.13;;;;;;;1.17;76.78;101234.84;5053469;28;20492;-72
2024/02/20 04:12:47;;;;;;;6.77;3.10;;;;;;;1.16;76.60;101233.09;5053521;28;20437;-72
2024/02/20 04:15:15;;;;;;;5.03;2.77;;;;;;;1.16;76.54;101235.66;5053349;28;20479;-72
2024/02/20 04:17:42;;;;;;;4.47;2.50;;;;;;;1.17;76.58;101234.84;5053461;28;20444;-71
2024/02/20 04:20:11;;;;;;;5.40;2.87;;;;;;;1.16;76.90;101230.50;5053187;28;20462;-72
2024/02/20 04:22:39;;;;;;;7.80;3.50;;;;;;;1.14;76.67;101230.50;5053285;28;20984;-72
2024/02/20 04:25:06;;;;;;;5.50;2.90;;;;;;;1.15;76.48;101232.22;5053260;28;20443;-72
2024/02/20 04:27:37;;;;;;;3.90;2.43;;;;;;;1.15;76.55;101226.22;5053275;28;20818;-72
2024/02/20 04:30:06;;;;;;;5.00;2.60;;;;;;;1.15;76.48;101239.97;5053211;28;20466;-75
2024/02/20 04:32:33;;;;;;;5.83;2.60;;;;;;;1.15;76.60;101241.66;5053205;28;20454;-75
2024/02/20 04:34:59;;;;;;;5.40;2.80;;;;;;;1.15;76.33;101241.66;5052992;28;20493;-75
2024/02/20 04:37:26;;;;;;;5.77;3.27;;;;;;;1.15;76.61;101249.41;5053001;28;20434;-75
2024/02/20 04:39:53;;;;;;;5.70;2.87;;;;;;;1.14;76.42;101253.69;5053102;28;20435;-75
2024/02/20 04:42:21;;;;;;;6.13;2.83;;;;;;;1.13;76.84;101251.94;5052916;28;20446;-75
2024/02/20 04:44:50;;;;;;;5.47;2.67;;;;;;;1.14;76.54;101252.81;5052957;28;21025;-75
2024/02/20 04:47:17;;;;;;;5.80;2.50;;;;;;;1.13;76.35;101248.47;5052944;28;20439;-75
2024/02/20 04:49:44;;;;;;;6.03;3.13;;;;;;;1.14;76.77;101251.13;5052923;28;20450;-75
2024/02/20 04:52:11;;;;;;;5.90;2.97;;;;;;;1.14;76.77;101245.09;5052740;28;20943;-75
2024/02/20 04:54:37;;;;;;;6.53;3.20;;;;;;;1.13;76.86;101245.91;5052577;28;20483;-75
2024/02/20 04:57:05;;;;;;;7.10;3.40;;;;;;;1.12;76.65;101241.59;5052750;28;20431;-75
2024/02/20 04:59:32;;;;;;;5.50;2.83;;;;;;;1.14;76.69;101250.25;5052672;28;20436;-75
2024/02/20 05:02:01;;;;;;;8.03;3.50;;;;;;;1.13;76.90;101246.78;5052785;28;20443;-75
2024/02/20 05:04:28;;;;;;;5.87;3.20;;;;;;;1.14;76.93;101250.25;5052456;28;20909;-74
2024/02/20 05:06:55;;;;;;;6.50;3.50;;;;;;;1.13;76.78;101246.78;5052808;28;20446;-75
2024/02/20 05:09:22;;;;;;;5.77;3.20;;;;;;;1.12;76.81;101246.75;5052893;28;20462;-74
2024/02/20 05:11:49;;;;;;;9.07;3.27;;;;;;;1.13;76.78;101251.06;5052487;28;20434;-75
2024/02/20 05:14:16;;;;;;;6.37;2.97;;;;;;;1.13;76.48;101245.91;5052740;28;20442;-74
2024/02/20 05:16:43;;;;;;;8.13;3.37;;;;;;;1.13;76.63;101240.75;5052410;28;20473;-74
2024/02/20 05:19:11;;;;;;;7.30;3.73;;;;;;;1.12;76.87;101249.34;5052608;28;20444;-74
2024/02/20 05:21:38;;;;;;;8.17;3.60;;;;;;;1.06;76.86;101238.88;5051892;28;20446;-74
2024/02/20 05:24:05;;;;;;;9.07;3.90;;;;;;;1.13;76.94;101253.63;5052816;28;20443;-74
2024/02/20 05:26:32;;;;;;;9.60;3.70;;;;;;;1.13;76.93;101253.63;5052434;28;20442;-74
2024/02/20 05:28:59;;;;;;;10.33;3.83;;;;;;;1.12;76.92;101259.63;5052273;28;20444;-75
2024/02/20 05:31:28;;;;;;;9.43;3.73;;;;;;;1.12;76.81;101249.34;5052574;28;20437;-75
2024/02/20 05:33:55;;;;;;;6.30;3.00;;;;;;;1.13;77.00;101254.50;5052325;28;20438;-73
2024/02/20 05:36:25;;;;;;;8.50;3.33;;;;;;;1.14;76.69;101253.69;5052327;28;20475;-73
2024/02/20 05:38:52;;;;;;;8.17;3.63;;;;;;;1.13;76.98;101254.50;5052251;28;20972;-76
2024/02/20 05:41:20;;;;;;;9.33;3.67;;;;;;;1.13;76.96;101254.50;5052361;28;20819;-75
2024/02/20 05:43:46;;;;;;;9.07;3.87;;;;;;;1.14;76.70;101260.56;5052761;28;20505;-76
2024/02/20 05:46:13;;;;;;;8.50;4.07;;;;;;;1.14;76.73;101257.97;5052366;28;20449;-75
2024/02/20 05:48:42;;;;;;;6.23;4.47;;;;;;;1.14;76.97;101257.97;5052269;28;20453;-76
2024/02/20 05:51:16;;;;;;;17.63;11.57;;;;;;;1.15;76.82;101262.28;5052265;28;21033;-76
2024/02/20 05:53:45;;;;;;;10.57;5.70;;;;;;;1.14;76.65;101257.97;5052204;28;20950;-76
2024/02/20 05:56:12;;;;;;;6.33;3.23;;;;;;;1.14;76.99;101260.56;5052091;28;20866;-76
2024/02/20 05:58:38;;;;;;;7.23;3.53;;;;;;;1.13;77.01;101262.22;5051990;28;20453;-75
2024/02/20 06:01:08;;;;;;;8.50;3.43;;;;;;;1.13;76.62;101256.22;5052256;28;20445;-75
2024/02/20 06:03:35;;;;;;;6.20;3.33;;;;;;;1.14;77.01;101250.25;5052141;28;20439;-76
2024/02/20 06:06:02;;;;;;;7.70;3.70;;;;;;;1.11;76.69;101253.63;5051992;28;20952;-75
2024/02/20 06:08:29;;;;;;;8.80;4.27;;;;;;;1.13;76.71;101253.63;5052101;28;20449;-76
2024/02/20 06:10:57;;;;;;;6.77;3.50;;;;;;;1.14;77.02;101252.81;5052111;28;20445;-75
2024/02/20 06:13:24;;;;;;;8.40;4.53;;;;;;;1.14;77.02;101257.97;5051995;28;20576;-75
2024/02/20 06:15:51;;;;;;;7.03;3.87;;;;;;;1.14;76.82;101257.97;5051978;28;20494;-75
2024/02/20 06:18:18;;;;;;;7.90;4.30;;;;;;;1.14;77.02;101258.84;5051942;28;20497;-74
2024/02/20 06:20:46;;;;;;;11.47;4.90;;;;;;;1.13;76.86;101254.50;5038992;28;20441;-75
2024/02/20 06:23:13;;;;;;;9.90;4.17;;;;;;;1.14;76.71;101257.97;5031926;28;20473;-75
2024/02/20 06:25:41;;;;;;;6.87;4.20;;;;;;;1.13;76.81;101257.09;5031969;28;20449;-75
2024/02/20 06:28:10;;;;;;;8.63;4.53;;;;;;;1.13;76.99;101256.22;5032004;28;20447;-75
2024/02/20 06:30:36;;;;;;;8.47;4.43;;;;;;;1.13;76.60;101257.09;5031880;28;20534;-75
2024/02/20 06:33:04;;;;;;;10.20;5.00;;;;;;;1.13;77.05;101256.22;5033622;28;20454;-75
2024/02/20 06:35:30;;;;;;;6.93;4.07;;;;;;;1.13;76.66;101257.09;5035327;28;20475;-75
2024/02/20 06:37:58;;;;;;;7.50;4.67;;;;;;;1.13;77.08;101251.06;5035498;28;20449;-74
2024/02/20 06:40:25;;;;;;;7.83;4.93;;;;;;;1.09;76.70;101247.56;5035435;28;20452;-74
2024/02/20 06:42:52;;;;;;;7.87;4.77;;;;;;;1.11;76.80;101255.34;5035171;28;20441;-74
2024/02/20 06:45:20;;;;;;;8.40;4.93;;;;;;;1.13;76.57;101249.34;5035430;28;20451;-75
2024/02/20 06:47:48;;;;;;;7.90;4.27;;;;;;;1.13;76.74;101248.47;5035141;28;20449;-74
2024/02/20 06:50:15;;;;;;;7.03;5.03;;;;;;;1.00;77.17;101219.00;5035262;28;20451;-74
2024/02/20 06:52:43;;;;;;;7.20;4.63;;;;;;;1.12;77.08;101250.19;5035378;28;20443;-74
2024/02/20 06:55:10;;;;;;;6.73;4.33;;;;;;;1.12;77.04;101252.78;5034913;28;20493;-74
2024/02/20 06:57:39;;;;;;;6.03;4.10;;;;;;;1.12;76.89;101252.78;5035045;28;20976;-75
2024/02/20 07:00:11;;;;;;;7.37;4.23;;;;;;;1.11;76.82;101252.75;5035014;28;20475;-73
2024/02/20 07:02:41;;;;;;;8.13;5.03;;;;;;;1.12;76.76;101255.34;5034934;28;20523;-73
2024/02/20 07:05:10;;;;;;;9.10;4.53;;;;;;;1.12;76.53;101259.63;5035174;28;20863;-73
2024/02/20 07:08:26;;;;;;;6.83;4.37;;;;;;;1.09;76.98;101255.28;5035085;28;20445;-74
2024/02/20 07:10:53;;;;;;;11.77;4.77;;;;;;;1.11;77.08;101261.34;5035000;28;20806;-73
2024/02/20 07:13:19;;;;;;;9.10;4.43;;;;;;;1.12;77.03;101264.78;5034873;28;20787;-71
2024/02/20 07:15:46;;;;;;;9.57;5.40;;;;;;;1.11;76.90;101263.94;5034531;28;20475;-73
2024/02/20 07:18:15;;;;;;;8.07;4.73;;;;;;;1.12;76.83;101264.78;5034637;28;20814;-73
2024/02/20 07:20:41;;;;;;;9.23;4.87;;;;;;;1.11;76.69;101269.09;5034904;28;20428;-73
2024/02/20 07:23:08;;;;;;;7.57;4.80;;;;;;;1.12;76.68;101269.94;5034630;28;20434;-73
2024/02/20 07:25:35;;;;;;;8.97;4.93;;;;;;;1.10;76.91;101261.31;5034536;28;20446;-73
2024/02/20 07:28:02;;;;;;;10.40;5.60;;;;;;;1.12;76.91;101275.09;5034865;28;20448;-74
2024/02/20 07:30:30;;;;;;;8.87;4.27;;;;;;;1.11;76.66;101271.66;5034518;28;20442;-75
2024/02/20 07:32:58;;;;;;;9.43;4.83;;;;;;;1.12;77.17;101282.84;5034374;28;20954;-74
2024/02/20 07:35:26;;;;;;;6.93;4.13;;;;;;;1.12;76.79;101282.84;5034293;28;20802;-74
2024/02/20 07:37:54;;;;;;;9.97;4.77;;;;;;;1.10;77.21;101280.19;5034354;28;20448;-74
2024/02/20 07:40:21;;;;;;;7.97;3.73;;;;;;;1.12;77.13;101285.41;5034369;28;20835;-75
2024/02/20 07:42:47;;;;;;;8.50;4.20;;;;;;;1.12;77.18;101280.25;5034027;28;20445;-75
2024/02/20 07:45:14;;;;;;;8.87;4.17;;;;;;;1.12;77.07;101285.41;5033991;28;20942;-75
2024/02/20 07:47:41;;;;;;;9.63;4.90;;;;;;;1.12;76.95;101278.53;5034491;28;20440;-74
2024/02/20 07:50:09;;;;;;;9.57;4.27;;;;;;;1.12;77.12;101281.13;5034528;28;20777;-74
2024/02/20 07:52:37;;;;;;;9.60;4.27;;;;;;;1.13;76.82;101279.41;5034098;28;20525;-74
2024/02/20 07:55:05;;;;;;;8.30;4.00;;;;;;;1.13;77.01;101282.84;5033848;28;20479;-74
2024/02/20 07:57:33;;;;;;;10.07;4.20;;;;;;;1.14;77.13;101287.19;5038550;28;20483;-74
2024/02/20 08:00:00;;;;;;;8.20;3.77;;;;;;;1.14;77.07;101288.91;5054031;28;20443;-74
2024/02/20 08:02:27;;;;;;;9.83;3.70;;;;;;;1.10;77.08;101284.50;5054062;28;20461;-74
2024/02/20 08:04:54;;;;;;;8.97;4.57;;;;;;;1.15;77.18;101290.63;5053848;28;20926;-74
2024/02/20 08:07:20;;;;;;;8.07;4.10;;;;;;;1.15;77.00;101290.63;5053625;28;20937;-75
2024/02/20 08:09:55;;;;;;;8.17;3.77;;;;;;;1.16;77.02;101292.38;5053637;28;20439;-78
2024/02/20 08:12:22;;;;;;;8.17;3.77;;;;;;;1.16;77.25;101292.38;5053815;28;20530;-78
2024/02/20 08:14:48;;;;;;;9.23;4.10;;;;;;;1.16;77.09;101298.41;5053638;28;20441;-78
2024/02/20 08:17:15;;;;;;;8.07;4.00;;;;;;;1.17;76.78;101288.97;5053735;28;21018;-78
2024/02/20 08:19:42;;;;;;;9.03;4.27;;;;;;;1.16;76.83;101293.25;5053891;28;20939;-77
2024/02/20 08:22:09;;;;;;;6.53;3.43;;;;;;;1.17;77.18;101294.13;5054018;28;20465;-78
2024/02/20 08:24:36;;;;;;;8.73;3.73;;;;;;;1.17;77.16;101295.00;5053529;28;20443;-78
2024/02/20 08:27:05;;;;;;;5.80;3.50;;;;;;;1.18;77.04;101303.59;5053525;28;20432;-78
2024/02/20 08:29:31;;;;;;;8.73;4.50;;;;;;;1.18;77.25;101296.72;5053311;28;20453;-78
2024/02/20 08:31:58;;;;;;;9.67;4.07;;;;;;;1.18;76.71;101283.84;5053412;28;20443;-78
2024/02/20 08:34:25;;;;;;;9.43;4.43;;;;;;;1.19;76.86;101282.13;5053525;28;20445;-78
2024/02/20 08:36:52;;;;;;;8.83;4.40;;;;;;;1.16;76.79;101285.53;5053084;28;20486;-78
2024/02/20 08:39:20;;;;;;;8.57;4.10;;;;;;;1.20;77.21;101294.19;5053629;28;20453;-71
2024/02/20 08:41:47;;;;;;;7.93;4.13;;;;;;;1.19;76.87;101292.44;5053016;28;20949;-71
2024/02/20 08:44:15;;;;;;;11.20;4.73;;;;;;;1.20;76.85;101286.47;5052906;28;20815;-71
2024/02/20 08:46:42;;;;;;;8.87;4.67;;;;;;;1.19;76.67;101285.59;5052825;28;20982;-71
2024/02/20 08:49:09;;;;;;;8.47;4.43;;;;;;;1.22;77.22;101284.78;5052868;28;20438;-71
2024/02/20 08:51:35;;;;;;;10.27;4.87;;;;;;;1.21;77.16;101286.50;5053066;28;20447;-71
2024/02/20 08:54:02;;;;;;;9.27;4.40;;;;;;;1.23;76.94;101286.53;5052807;28;20442;-71
2024/02/20 08:56:29;;;;;;;8.73;4.53;;;;;;;1.23;77.46;101286.53;5052280;28;20491;-71
2024/02/20 08:58:56;;;;;;;8.10;4.43;;;;;;;1.13;77.16;101267.38;5052733;28;20441;-71
2024/02/20 09:01:25;;;;;;;8.03;4.37;;;;;;;1.23;77.16;101289.13;5053033;28;20438;-71
2024/02/20 09:03:53;;;;;;;8.63;4.33;;;;;;;1.23;77.19;101286.53;5052813;28;20439;-71
2024/02/20 09:06:20;;;;;;;10.97;4.77;;;;;;;1.24;77.23;101290.84;5052883;28;20457;-71
2024/02/20 09:08:47;;;;;;;8.30;4.53;;;;;;;1.24;76.81;101293.44;5052798;28;20462;-71
2024/02/20 09:11:13;;;;;;;10.00;4.77;;;;;;;1.25;76.86;101292.63;5052820;28;20434;-70
2024/02/20 09:13:40;;;;;;;9.40;4.73;;;;;;;1.27;76.86;101296.06;5052943;28;20443;-71
2024/02/20 09:16:07;;;;;;;8.83;4.97;;;;;;;1.27;77.25;101296.06;5052397;28;20465;-71
2024/02/20 09:18:36;;;;;;;8.00;4.33;;;;;;;1.29;77.17;101294.41;5052593;28;20436;-74
2024/02/20 09:21:04;;;;;;;7.60;4.07;;;;;;;1.30;77.08;101295.28;5052588;28;20795;-74
2024/02/20 09:23:36;;;;;;;5.67;3.70;;;;;;;1.30;76.75;101291.00;5052665;28;20446;-74
2024/02/20 09:26:03;;;;;;;6.87;4.07;;;;;;;1.31;77.33;101291.88;5052737;28;20797;-74
2024/02/20 09:28:30;;;;;;;6.77;3.90;;;;;;;1.32;76.85;101294.47;5052522;28;20813;-74
2024/02/20 09:30:56;;;;;;;6.17;3.93;;;;;;;1.34;77.21;101303.13;5052474;28;20436;-73
2024/02/20 09:33:23;;;;;;;7.70;3.40;;;;;;;1.36;77.17;101295.41;5052359;28;20432;-74
2024/02/20 09:35:52;;;;;;;6.60;3.67;;;;;;;1.36;76.68;101301.47;5052394;28;20433;-75
2024/02/20 09:38:19;;;;;;;6.87;3.50;;;;;;;1.37;77.10;101299.75;5052746;28;20427;-75
2024/02/20 09:40:48;;;;;;;6.67;3.90;;;;;;;1.39;77.11;101298.06;5052308;28;20505;-75
2024/02/20 09:43:17;;;;;;;6.47;3.77;;;;;;;1.39;76.88;101301.53;5052373;28;20443;-74
2024/02/20 09:45:46;;;;;;;6.43;3.83;;;;;;;1.41;76.94;101299.84;5052250;28;20447;-75
2024/02/20 09:48:15;;;;;;;7.03;3.60;;;;;;;1.42;76.61;101296.47;5052428;28;20933;-77
2024/02/20 09:50:44;;;;;;;4.83;3.00;;;;;;;1.43;77.01;101308.50;5052259;28;20448;-77
2024/02/20 09:53:13;;;;;;;5.43;3.47;;;;;;;1.44;76.65;101315.38;5052701;28;20434;-77
2024/02/20 09:55:41;;;;;;;5.20;3.03;;;;;;;1.45;77.19;101306.84;5052301;28;20471;-77
2024/02/20 09:58:08;;;;;;;6.53;3.23;;;;;;;1.46;76.76;101307.69;5052021;28;20500;-77
2024/02/20 10:00:36;;;;;;;6.57;3.80;;;;;;;1.48;77.07;101311.19;5052495;28;20451;-77
2024/02/20 10:03:05;;;;;;;5.17;3.50;;;;;;;1.48;76.89;101309.47;5052536;28;20436;-77
2024/02/20 10:05:36;;;;;;;5.43;3.50;;;;;;;1.50;76.68;101314.66;5052237;28;20443;-77
2024/02/20 10:08:02;;;;;;;5.00;3.30;;;;;;;1.52;76.82;101313.00;5055503;28;20449;-77
2024/02/20 10:10:32;;;;;;;4.50;3.13;;;;;;;1.53;77.11;101324.19;5056224;28;20444;-77
2024/02/20 10:13:00;;;;;;;3.87;2.70;;;;;;;1.55;76.69;101327.66;5056158;28;20459;-77
2024/02/20 10:15:27;;;;;;;3.70;2.83;;;;;;;1.55;76.88;101322.50;5055746;28;20823;-77
2024/02/20 10:18:01;;;;;;;5.03;2.90;;;;;;;1.56;76.70;101325.16;5055793;28;20475;-76
2024/02/20 10:20:29;;;;;;;4.67;3.17;;;;;;;1.57;76.80;101326.00;5056048;28;20519;-77
2024/02/20 10:23:04;;;;;;;3.93;3.13;;;;;;;1.57;76.37;101328.59;5055742;28;20454;-77
2024/02/20 10:25:33;;;;;;;4.33;2.93;;;;;;;1.58;76.94;101333.75;5055665;28;20470;-77
2024/02/20 10:28:00;;;;;;;4.67;3.07;;;;;;;1.60;76.75;101333.81;5055736;28;20823;-78
2024/02/20 10:30:27;;;;;;;4.57;3.40;;;;;;;1.60;76.83;101334.69;5055583;28;20436;-74
2024/02/20 10:32:54;;;;;;;4.90;3.53;;;;;;;1.60;76.38;101326.06;5055577;28;20447;-73
2024/02/20 10:35:23;;;;;;;3.83;3.07;;;;;;;1.60;76.54;101326.94;5055524;28;20433;-74
2024/02/20 10:38:00;;;;;;;4.70;3.40;;;;;;;1.63;76.64;101331.31;5055392;28;20824;-73
2024/02/20 10:40:27;;;;;;;5.77;3.60;;;;;;;1.63;76.32;101332.16;5055238;28;20436;-74
2024/02/20 10:42:56;;;;;;;4.17;3.20;;;;;;;1.63;76.56;101331.31;5055508;28;20447;-74
2024/02/20 10:45:24;;;;;;;5.60;3.80;;;;;;;1.65;76.36;101329.63;5055156;28;20494;-74
2024/02/20 10:47:55;;;;;;;3.97;3.13;;;;;;;1.65;76.12;101338.25;5055335;28;20466;-74
2024/02/20 10:50:22;;;;;;;6.93;3.70;;;;;;;1.66;76.30;101328.78;5055120;28;20445;-73
2024/02/20 10:52:51;;;;;;;5.10;3.80;;;;;;;1.67;76.35;101333.09;5055089;28;20944;-73
2024/02/20 10:55:19;;;;;;;6.30;3.90;;;;;;;1.66;76.61;101331.38;5055014;28;20466;-74
2024/02/20 10:57:47;;;;;;;7.17;4.07;;;;;;;1.67;76.10;101330.53;5055104;28;20485;-74
2024/02/20 11:00:18;;;;;;;6.23;3.90;;;;;;;1.67;76.24;101333.09;5055251;28;20450;-78
2024/02/20 11:02:48;;;;;;;6.60;4.57;;;;;;;1.66;76.05;101336.53;5055377;28;20866;-78
2024/02/20 11:05:15;;;;;;;6.77;3.73;;;;;;;1.64;76.13;101331.31;5055021;28;20505;-78
2024/02/20 11:07:43;;;;;;;6.87;3.97;;;;;;;1.64;75.98;101335.63;5055016;28;20438;-78
2024/02/20 11:10:12;;;;;;;6.17;3.90;;;;;;;1.64;76.17;101338.19;5055058;28;20453;-78
2024/02/20 11:12:38;;;;;;;6.50;4.13;;;;;;;1.63;75.82;101337.31;5055081;28;20437;-78
2024/02/20 11:15:11;;;;;;;7.07;4.43;;;;;;;1.63;76.11;101336.47;5054773;28;20950;-78
2024/02/20 11:17:40;;;;;;;6.67;4.07;;;;;;;1.62;76.17;101329.56;5054393;28;20523;-78
2024/02/20 11:20:10;;;;;;;6.30;4.10;;;;;;;1.62;76.37;101329.56;5054619;28;20426;-78
2024/02/20 11:22:38;;;;;;;5.50;4.10;;;;;;;1.60;76.28;101321.78;5054524;28;20479;-79
2024/02/20 11:25:09;;;;;;;5.13;3.83;;;;;;;1.61;76.25;101327.81;5054553;28;20436;-78
2024/02/20 11:27:41;;;;;;;6.83;4.30;;;;;;;1.61;76.15;101322.66;5054890;28;20943;-77
2024/02/20 11:30:19;;;;;;;5.63;4.00;;;;;;;1.61;76.29;101320.94;5054879;28;20877;-78
2024/02/20 11:32:49;;;;;;;6.10;3.93;;;;;;;1.61;75.99;101314.91;5054468;28;20793;-78
2024/02/20 11:35:25;;;;;;;5.63;3.70;;;;;;;1.61;76.26;101302.88;5054449;28;20442;-78
2024/02/20 11:37:54;;;;;;;4.50;3.30;;;;;;;1.59;76.24;101312.31;5054277;28;20483;-77